Caribbean Princess — ZCDG8 — position and weather

sailwx.info

Track history (hours):
 
Tides and Currents Weather Stations Pressure Air Temp Water Temp Dewpoint Dewpoint Depression Visibility Wind Speed Wind Dir Waves Ship Positions

Caribbean Princess

Operator: Princess Cruises

Last reported at 2019-Feb-23 17:30 UTC. Time now 2019-Feb-23 17:38 UTC.
Position N 26°06' W 080°07'.

Type: Passenger vessel. MMSI: 310423000.

Date/timePositionNaut miles runAvg speedWind from/ knotsBaromVisibWave heightAir tempDewpointWater temp
2019-Feb-23 17:30N 26°06' W 080°07'0 0.0
2019-Feb-23 17:00N 26°06' W 080°07'0 0.0
2019-Feb-23 16:30N 26°06' W 080°07'0 0.0
2019-Feb-23 15:58N 26°06' W 080°07'0 0.2
2019-Feb-23 15:29N 26°06' W 080°07'0 0.2
2019-Feb-23 14:58N 26°06' W 080°07'0 0.0
2019-Feb-23 14:29N 26°06' W 080°07'0 0.0
2019-Feb-23 13:58N 26°06' W 080°07'0 0.0
2019-Feb-23 13:30N 26°06' W 080°07'0 0.0
2019-Feb-23 12:59N 26°06' W 080°07'0 0.0
2019-Feb-23 12:29N 26°06' W 080°07'0 0.0
2019-Feb-23 11:59N 26°06' W 080°07'0 0.3
2019-Feb-23 11:30N 26°06' W 080°07'3 6.4
2019-Feb-23 11:00N 26°06' W 080°04'611.5
2019-Feb-23 10:30N 26°03' W 079°58'817.0
2019-Feb-23 10:00N 25°55' W 079°54'815.8
2019-Feb-23 09:30N 25°47' W 079°54'816.0
2019-Feb-23 09:00N 25°39' W 079°55'815.6
2019-Feb-23 08:30N 25°32' W 079°57'815.1
2019-Feb-23 08:00N 25°24' W 079°58'714.8
2019-Feb-23 07:30N 25°17' W 079°60'21511.6
2019-Feb-22 13:00N 22°36' W 082°36'17935.8 090 / 221017.210.8 25.522.729.0
2019-Feb-22 08:00N 21°48' W 085°42'9518.1 120 / 271014.310.8 26.522.330.0
2019-Feb-22 02:45N 20°40' W 086°53'414.7
2019-Feb-22 02:30N 20°37' W 086°55'612.6
2019-Feb-22 02:00N 20°31' W 086°58'3 5.0
2019-Feb-22 01:30N 20°29' W 086°59'0 0.0
2019-Feb-22 01:00N 20°29' W 086°59'0 0.0
2019-Feb-22 00:30N 20°29' W 086°59'0 0.0
2019-Feb-21 23:59N 20°29' W 086°59'0 0.0
2019-Feb-21 23:29N 20°29' W 086°59'0 0.0
2019-Feb-21 22:59N 20°29' W 086°59'0 0.0
2019-Feb-21 22:28N 20°29' W 086°59'0 0.0
2019-Feb-21 22:00N 20°29' W 086°59'0 0.0
2019-Feb-21 21:26N 20°29' W 086°59'0 0.0
2019-Feb-21 20:59N 20°29' W 086°59'0 0.0
2019-Feb-21 20:29N 20°29' W 086°59'0 0.0
2019-Feb-21 19:58N 20°29' W 086°59'0 0.0
2019-Feb-21 19:30N 20°29' W 086°59'0 0.0
2019-Feb-21 19:00N 20°29' W 086°59'0 0.0
2019-Feb-21 18:30N 20°29' W 086°59'0 0.0
2019-Feb-21 17:59N 20°29' W 086°59'0 0.0
2019-Feb-21 17:29N 20°29' W 086°59'0 0.0
2019-Feb-21 16:59N 20°29' W 086°59'0 0.0
2019-Feb-21 16:29N 20°29' W 086°59'0 0.0
2019-Feb-21 15:59N 20°29' W 086°59'0 0.0
2019-Feb-21 15:29N 20°29' W 086°59'0 0.0
2019-Feb-21 14:59N 20°29' W 086°59'0 0.0
2019-Feb-21 14:28N 20°29' W 086°59'0 0.0
2019-Feb-21 13:58N 20°29' W 086°59'0 0.0
2019-Feb-21 13:28N 20°29' W 086°59'0 0.5
2019-Feb-21 13:00N 20°29' W 086°59'3 6.2
2019-Feb-21 12:30N 20°27' W 087°01'1020.0
2019-Feb-21 12:00N 20°17' W 087°04'240 5.1
2019-Feb-19 13:00N 16°42' W 085°12'8729.2 140 / 301015.310.8 26.522.330.0
2019-Feb-19 10:00N 17°36' W 084°00'169 8.1 130 / 241013.810.8 28.023.230.0
2019-Feb-18 13:00N 19°36' W 081°54'21616.6 130 / 241015.210.8 26.023.928.0
2019-Feb-18 00:00N 21°36' W 085°06'1158231.6 140 / 301011.610.8 26.823.628.0
2019-Feb-17 19:00N 22°42' W 064°18'87953.7 180 / 221013.910.8 23.517.527.0
2019-Feb-17 02:38N 25°12' W 080°06'216.3
2019-Feb-17 02:30N 25°14' W 080°04'815.9
2019-Feb-17 02:00N 25°21' W 080°01'815.8
2019-Feb-17 01:31N 25°29' W 079°60'815.1
2019-Feb-17 01:00N 25°37' W 079°59'815.0
2019-Feb-17 00:30N 25°44' W 079°58'714.8
2019-Feb-17 00:00N 25°51' W 079°59'714.6
2019-Feb-16 23:30N 25°59' W 080°00'612.8
2019-Feb-16 23:00N 26°05' W 080°03'4 8.1
2019-Feb-16 22:30N 26°06' W 080°07'0 0.6
2019-Feb-16 21:59N 26°06' W 080°07'0 0.0
2019-Feb-16 21:28N 26°06' W 080°07'0 0.0
2019-Feb-16 20:58N 26°06' W 080°07'0 0.0
2019-Feb-16 20:28N 26°06' W 080°07'0 0.0
2019-Feb-16 19:58N 26°06' W 080°07'0 0.0
2019-Feb-16 19:30N 26°06' W 080°07'0 0.0
2019-Feb-16 19:00N 26°06' W 080°07'0 0.0
2019-Feb-16 18:30N 26°06' W 080°07'0 0.0
2019-Feb-16 17:59N 26°06' W 080°07'0 0.0
2019-Feb-16 17:29N 26°06' W 080°07'0 0.0
2019-Feb-16 16:58N 26°06' W 080°07'0 0.0
2019-Feb-16 16:28N 26°06' W 080°07'0 0.0
2019-Feb-16 16:00N 26°06' W 080°07'0 0.0
2019-Feb-16 15:28N 26°06' W 080°07'0 0.0
2019-Feb-16 15:00N 26°06' W 080°07'0 0.0
2019-Feb-16 14:30N 26°06' W 080°07'0 0.0
2019-Feb-16 14:00N 26°06' W 080°07'0 0.0
2019-Feb-16 13:30N 26°06' W 080°07'0 0.0
2019-Feb-16 12:59N 26°06' W 080°07'0 0.0
2019-Feb-16 12:29N 26°06' W 080°07'0 0.0
2019-Feb-16 11:59N 26°06' W 080°07'0 0.0
2019-Feb-16 11:30N 26°06' W 080°07'2 3.5
2019-Feb-16 11:00N 26°06' W 080°05'1010.2
2019-Feb-16 10:00N 26°07' W 079°54'510.9
2019-Feb-16 09:30N 26°07' W 079°48'611.2
2019-Feb-16 09:00N 26°08' W 079°42'611.2
2019-Feb-16 08:30N 26°09' W 079°36'612.1
2019-Feb-16 08:00N 26°10' W 079°29'18923.5
2019-Feb-16 00:00N 25°24' W 076°06'13111.9 010 / 101013.910.8 23.517.527.0
2019-Feb-15 13:00N 24°12' W 074°06'9716.2 270 / 51013.610.8 23.522.129.0
2019-Feb-15 07:00N 23°06' W 072°48'   210 / 101013.610.8 26.820.729.0
Track history (hours):
 
Tides and Currents Weather Stations Pressure Air Temp Water Temp Dewpoint Dewpoint Depression Visibility Wind Speed Wind Dir Waves Ship Positions

Caribbean Princess

Operator: Princess Cruises

Last reported at 2019-Feb-23 17:30 UTC. Time now 2019-Feb-23 17:38 UTC.
Position N 26°06' W 080°07'.

Type: Passenger vessel. MMSI: 310423000.

Date/timePositionNaut miles runAvg speedWind from/ knotsBaromVisibWave heightAir tempDewpointWater temp
2019-Feb-23 17:30N 26°06' W 080°07'0 0.0
2019-Feb-23 17:00N 26°06' W 080°07'0 0.0
2019-Feb-23 16:30N 26°06' W 080°07'0 0.0
2019-Feb-23 15:58N 26°06' W 080°07'0 0.2
2019-Feb-23 15:29N 26°06' W 080°07'0 0.2
2019-Feb-23 14:58N 26°06' W 080°07'0 0.0
2019-Feb-23 14:29N 26°06' W 080°07'0 0.0
2019-Feb-23 13:58N 26°06' W 080°07'0 0.0
2019-Feb-23 13:30N 26°06' W 080°07'0 0.0
2019-Feb-23 12:59N 26°06' W 080°07'0 0.0
2019-Feb-23 12:29N 26°06' W 080°07'0 0.0
2019-Feb-23 11:59N 26°06' W 080°07'0 0.3
2019-Feb-23 11:30N 26°06' W 080°07'3 6.4
2019-Feb-23 11:00N 26°06' W 080°04'611.5
2019-Feb-23 10:30N 26°03' W 079°58'817.0
2019-Feb-23 10:00N 25°55' W 079°54'815.8
2019-Feb-23 09:30N 25°47' W 079°54'816.0
2019-Feb-23 09:00N 25°39' W 079°55'815.6
2019-Feb-23 08:30N 25°32' W 079°57'815.1
2019-Feb-23 08:00N 25°24' W 079°58'714.8
2019-Feb-23 07:30N 25°17' W 079°60'21511.6
2019-Feb-22 13:00N 22°36' W 082°36'17935.8 090 / 221017.210.8 25.522.729.0
2019-Feb-22 08:00N 21°48' W 085°42'9518.1 120 / 271014.310.8 26.522.330.0
2019-Feb-22 02:45N 20°40' W 086°53'414.7
2019-Feb-22 02:30N 20°37' W 086°55'612.6
2019-Feb-22 02:00N 20°31' W 086°58'3 5.0
2019-Feb-22 01:30N 20°29' W 086°59'0 0.0
2019-Feb-22 01:00N 20°29' W 086°59'0 0.0
2019-Feb-22 00:30N 20°29' W 086°59'0 0.0
2019-Feb-21 23:59N 20°29' W 086°59'0 0.0
2019-Feb-21 23:29N 20°29' W 086°59'0 0.0
2019-Feb-21 22:59N 20°29' W 086°59'0 0.0
2019-Feb-21 22:28N 20°29' W 086°59'0 0.0
2019-Feb-21 22:00N 20°29' W 086°59'0 0.0
2019-Feb-21 21:26N 20°29' W 086°59'0 0.0
2019-Feb-21 20:59N 20°29' W 086°59'0 0.0
2019-Feb-21 20:29N 20°29' W 086°59'0 0.0
2019-Feb-21 19:58N 20°29' W 086°59'0 0.0
2019-Feb-21 19:30N 20°29' W 086°59'0 0.0
2019-Feb-21 19:00N 20°29' W 086°59'0 0.0
2019-Feb-21 18:30N 20°29' W 086°59'0 0.0
2019-Feb-21 17:59N 20°29' W 086°59'0 0.0
2019-Feb-21 17:29N 20°29' W 086°59'0 0.0
2019-Feb-21 16:59N 20°29' W 086°59'0 0.0
2019-Feb-21 16:29N 20°29' W 086°59'0 0.0
2019-Feb-21 15:59N 20°29' W 086°59'0 0.0
2019-Feb-21 15:29N 20°29' W 086°59'0 0.0
2019-Feb-21 14:59N 20°29' W 086°59'0 0.0
2019-Feb-21 14:28N 20°29' W 086°59'0 0.0
2019-Feb-21 13:58N 20°29' W 086°59'0 0.0
2019-Feb-21 13:28N 20°29' W 086°59'0 0.5
2019-Feb-21 13:00N 20°29' W 086°59'3 6.2
2019-Feb-21 12:30N 20°27' W 087°01'1020.0
2019-Feb-21 12:00N 20°17' W 087°04'240 5.1
2019-Feb-19 13:00N 16°42' W 085°12'8729.2 140 / 301015.310.8 26.522.330.0
2019-Feb-19 10:00N 17°36' W 084°00'169 8.1 130 / 241013.810.8 28.023.230.0
2019-Feb-18 13:00N 19°36' W 081°54'21616.6 130 / 241015.210.8 26.023.928.0
2019-Feb-18 00:00N 21°36' W 085°06'1158231.6 140 / 301011.610.8 26.823.628.0
2019-Feb-17 19:00N 22°42' W 064°18'87953.7 180 / 221013.910.8 23.517.527.0
2019-Feb-17 02:38N 25°12' W 080°06'216.3
2019-Feb-17 02:30N 25°14' W 080°04'815.9
2019-Feb-17 02:00N 25°21' W 080°01'815.8
2019-Feb-17 01:31N 25°29' W 079°60'815.1
2019-Feb-17 01:00N 25°37' W 079°59'815.0
2019-Feb-17 00:30N 25°44' W 079°58'714.8
2019-Feb-17 00:00N 25°51' W 079°59'714.6
2019-Feb-16 23:30N 25°59' W 080°00'612.8
2019-Feb-16 23:00N 26°05' W 080°03'4 8.1
2019-Feb-16 22:30N 26°06' W 080°07'0 0.6
2019-Feb-16 21:59N 26°06' W 080°07'0 0.0
2019-Feb-16 21:28N 26°06' W 080°07'0 0.0
2019-Feb-16 20:58N 26°06' W 080°07'0 0.0
2019-Feb-16 20:28N 26°06' W 080°07'0 0.0
2019-Feb-16 19:58N 26°06' W 080°07'0 0.0
2019-Feb-16 19:30N 26°06' W 080°07'0 0.0
2019-Feb-16 19:00N 26°06' W 080°07'0 0.0
2019-Feb-16 18:30N 26°06' W 080°07'0 0.0
2019-Feb-16 17:59N 26°06' W 080°07'0 0.0
2019-Feb-16 17:29N 26°06' W 080°07'0 0.0
2019-Feb-16 16:58N 26°06' W 080°07'0 0.0
2019-Feb-16 16:28N 26°06' W 080°07'0 0.0
2019-Feb-16 16:00N 26°06' W 080°07'0 0.0
2019-Feb-16 15:28N 26°06' W 080°07'0 0.0
2019-Feb-16 15:00N 26°06' W 080°07'0 0.0
2019-Feb-16 14:30N 26°06' W 080°07'0 0.0
2019-Feb-16 14:00N 26°06' W 080°07'0 0.0
2019-Feb-16 13:30N 26°06' W 080°07'0 0.0
2019-Feb-16 12:59N 26°06' W 080°07'0 0.0
2019-Feb-16 12:29N 26°06' W 080°07'0 0.0
2019-Feb-16 11:59N 26°06' W 080°07'0 0.0
2019-Feb-16 11:30N 26°06' W 080°07'2 3.5
2019-Feb-16 11:00N 26°06' W 080°05'1010.2
2019-Feb-16 10:00N 26°07' W 079°54'510.9
2019-Feb-16 09:30N 26°07' W 079°48'611.2
2019-Feb-16 09:00N 26°08' W 079°42'611.2
2019-Feb-16 08:30N 26°09' W 079°36'612.1
2019-Feb-16 08:00N 26°10' W 079°29'18923.5
2019-Feb-16 00:00N 25°24' W 076°06'13111.9 010 / 101013.910.8 23.517.527.0
2019-Feb-15 13:00N 24°12' W 074°06'9716.2 270 / 51013.610.8 23.522.129.0
2019-Feb-15 07:00N 23°06' W 072°48'   210 / 101013.610.8 26.820.729.0

Dump ship's entire track history